createdAt,value
2024-02-28T00:00:54.353Z,86.00
2024-02-28T00:03:23.202Z,86.20
2024-02-28T00:05:50.624Z,86.30
2024-02-28T00:08:18.380Z,86.30
2024-02-28T00:10:45.668Z,86.20
2024-02-28T00:13:12.887Z,86.10
2024-02-28T00:15:40.261Z,86.20
2024-02-28T00:18:07.647Z,86.20
2024-02-28T00:20:34.908Z,86.30
2024-02-28T00:23:02.027Z,86.20
2024-02-28T00:25:29.362Z,86.30
2024-02-28T00:27:56.515Z,86.30
2024-02-28T00:30:23.809Z,86.40
2024-02-28T00:32:51.060Z,86.30
2024-02-28T00:35:18.302Z,86.40
2024-02-28T00:37:45.563Z,86.50
2024-02-28T00:40:13.467Z,86.60
2024-02-28T00:42:40.703Z,86.50
2024-02-28T00:45:10.766Z,86.40
2024-02-28T00:47:39.132Z,86.50
2024-02-28T00:50:06.642Z,86.50
2024-02-28T00:52:33.865Z,86.60
2024-02-28T00:55:01.208Z,86.60
2024-02-28T00:57:28.510Z,86.70
2024-02-28T00:59:55.944Z,86.80
2024-02-28T01:02:23.301Z,86.80
2024-02-28T01:04:50.471Z,86.80
2024-02-28T01:07:17.882Z,86.90
2024-02-28T01:09:46.074Z,86.90
2024-02-28T01:12:13.361Z,86.90
2024-02-28T01:14:40.533Z,87.00
2024-02-28T01:17:07.748Z,87.60
2024-02-28T01:19:34.896Z,87.00
2024-02-28T01:22:02.082Z,87.00
2024-02-28T01:24:29.268Z,87.00
2024-02-28T01:26:56.527Z,87.10
2024-02-28T01:29:23.660Z,87.10
2024-02-28T01:31:50.766Z,87.10
2024-02-28T01:34:17.907Z,87.00
2024-02-28T01:36:45.162Z,87.10
2024-02-28T01:39:12.446Z,87.10
2024-02-28T01:41:39.688Z,87.10
2024-02-28T01:44:06.930Z,87.20
2024-02-28T01:46:34.196Z,87.20
2024-02-28T01:49:01.500Z,87.20
2024-02-28T01:51:29.432Z,87.20
2024-02-28T01:53:57.708Z,87.20
2024-02-28T01:56:26.983Z,87.30
2024-02-28T01:58:56.497Z,87.30
2024-02-28T02:01:23.718Z,87.40
2024-02-28T02:03:53.671Z,87.40
2024-02-28T02:06:21.649Z,87.40
2024-02-28T02:08:49.203Z,87.40
2024-02-28T02:11:20.205Z,87.40
2024-02-28T02:13:54.516Z,87.50
2024-02-28T02:16:27.697Z,87.70
2024-02-28T02:18:55.705Z,87.50
2024-02-28T02:21:36.044Z,87.60
2024-02-28T02:24:03.286Z,87.70
2024-02-28T02:26:30.542Z,87.80
2024-02-28T02:28:57.752Z,87.80
2024-02-28T02:31:24.974Z,87.80
2024-02-28T02:33:52.136Z,87.80
2024-02-28T02:36:19.430Z,87.90
2024-02-28T02:38:46.720Z,87.90
2024-02-28T02:41:13.877Z,87.80
2024-02-28T02:43:41.037Z,87.80
2024-02-28T02:46:08.312Z,87.90
2024-02-28T02:48:35.560Z,87.90
2024-02-28T02:51:02.793Z,87.80
2024-02-28T02:53:29.986Z,87.90
2024-02-28T02:55:57.237Z,87.90
2024-02-28T02:58:24.426Z,88.00
2024-02-28T03:00:51.798Z,88.00
2024-02-28T03:03:19.053Z,87.80
2024-02-28T03:05:46.292Z,87.90
2024-02-28T03:08:13.619Z,87.90
2024-02-28T03:10:40.909Z,88.00
2024-02-28T03:13:08.417Z,88.00
2024-02-28T03:15:35.852Z,88.00
2024-02-28T03:18:03.552Z,88.00
2024-02-28T03:20:30.760Z,88.00
2024-02-28T03:22:57.881Z,87.90
2024-02-28T03:25:25.129Z,88.00
2024-02-28T03:27:52.496Z,88.00
2024-02-28T03:30:20.244Z,88.00
2024-02-28T03:32:47.607Z,88.00
2024-02-28T03:35:14.950Z,88.00
2024-02-28T03:37:42.161Z,88.10
2024-02-28T03:40:09.930Z,88.00
2024-02-28T03:42:37.093Z,88.10
2024-02-28T03:45:04.751Z,88.70
2024-02-28T03:47:31.943Z,88.10
2024-02-28T03:50:00.582Z,88.20
2024-02-28T03:52:27.828Z,88.00
2024-02-28T03:54:55.063Z,88.20
2024-02-28T03:57:22.360Z,88.00
2024-02-28T03:59:49.551Z,88.10
2024-02-28T04:02:16.746Z,88.60
2024-02-28T04:04:44.121Z,88.00
2024-02-28T04:07:11.946Z,88.00
2024-02-28T04:09:39.145Z,88.20
2024-02-28T04:12:06.583Z,88.10
2024-02-28T04:14:33.715Z,88.10
2024-02-28T04:17:00.875Z,88.10
2024-02-28T04:19:28.045Z,88.10
2024-02-28T04:21:55.242Z,88.00
2024-02-28T04:24:22.458Z,88.00
2024-02-28T04:26:49.629Z,88.20
2024-02-28T04:29:16.781Z,88.10
2024-02-28T04:31:43.913Z,88.10
2024-02-28T04:34:11.109Z,88.00
2024-02-28T04:36:38.379Z,88.20
2024-02-28T04:39:07.774Z,88.20
2024-02-28T04:41:35.239Z,88.20
2024-02-28T04:44:02.502Z,88.30
2024-02-28T04:46:29.636Z,88.30
2024-02-28T04:48:56.858Z,88.30
2024-02-28T04:51:24.125Z,88.30
2024-02-28T04:53:51.262Z,88.40
2024-02-28T04:56:18.479Z,88.40
2024-02-28T04:58:46.167Z,88.50
2024-02-28T05:01:14.243Z,88.50
2024-02-28T05:03:42.206Z,88.60
2024-02-28T05:06:09.460Z,88.50
2024-02-28T05:08:39.343Z,88.60
2024-02-28T05:11:06.518Z,88.60
2024-02-28T05:13:33.689Z,88.60
2024-02-28T05:16:01.547Z,88.60
2024-02-28T05:18:28.981Z,88.60
2024-02-28T05:20:56.210Z,88.60
2024-02-28T05:23:24.532Z,88.60
2024-02-28T05:25:51.800Z,88.60
2024-02-28T05:28:18.978Z,88.60
2024-02-28T05:30:48.861Z,88.60
2024-02-28T05:33:19.076Z,88.60
2024-02-28T05:35:46.525Z,88.60
2024-02-28T05:38:13.664Z,88.60
2024-02-28T05:40:43.005Z,88.60
2024-02-28T05:43:10.108Z,88.60
2024-02-28T05:45:37.370Z,88.60
2024-02-28T05:48:04.680Z,88.60
2024-02-28T05:50:34.050Z,88.60
2024-02-28T05:53:01.236Z,88.60
2024-02-28T05:55:29.598Z,88.50
2024-02-28T05:57:57.606Z,88.60
2024-02-28T06:00:24.851Z,88.60
2024-02-28T06:02:52.020Z,88.50
2024-02-28T06:05:19.263Z,88.50
2024-02-28T06:07:46.424Z,88.60
2024-02-28T06:10:13.602Z,88.70
2024-02-28T06:12:40.983Z,88.50
2024-02-28T06:15:08.471Z,88.60
2024-02-28T06:17:35.628Z,88.60
2024-02-28T06:20:02.971Z,88.60
2024-02-28T06:22:30.175Z,88.70
2024-02-28T06:24:57.572Z,88.60
2024-02-28T06:27:25.662Z,88.60
2024-02-28T06:29:52.898Z,88.70
2024-02-28T06:32:20.284Z,88.70
2024-02-28T06:34:48.438Z,88.70
2024-02-28T06:37:15.641Z,88.70
2024-02-28T06:39:43.367Z,88.70
2024-02-28T06:42:10.522Z,88.70
2024-02-28T06:44:37.792Z,88.90
2024-02-28T06:47:05.245Z,88.80
2024-02-28T06:49:32.616Z,88.90
2024-02-28T06:52:02.423Z,88.90
2024-02-28T06:54:29.816Z,88.90
2024-02-28T06:56:58.665Z,89.00
2024-02-28T06:59:25.837Z,88.90
2024-02-28T07:01:53.098Z,88.90
2024-02-28T07:04:20.337Z,88.90
2024-02-28T07:06:47.769Z,88.90
2024-02-28T07:09:16.557Z,88.90
2024-02-28T07:11:43.860Z,89.00
2024-02-28T07:14:11.083Z,89.00
2024-02-28T07:16:38.273Z,89.10
2024-02-28T07:19:05.628Z,89.00
2024-02-28T07:21:33.632Z,89.00
2024-02-28T07:24:00.943Z,89.10
2024-02-28T07:26:28.305Z,89.10
2024-02-28T07:28:55.688Z,89.00
2024-02-28T07:31:23.591Z,89.10
2024-02-28T07:33:50.964Z,89.10
2024-02-28T07:36:18.249Z,89.10
2024-02-28T07:38:45.614Z,89.10
2024-02-28T07:41:13.155Z,89.10
2024-02-28T07:43:44.390Z,89.20
2024-02-28T07:46:12.614Z,89.20
2024-02-28T07:48:40.612Z,89.20
2024-02-28T07:51:08.911Z,89.20
2024-02-28T07:53:36.590Z,89.20
2024-02-28T07:56:04.266Z,89.20
2024-02-28T07:58:31.506Z,89.20
2024-02-28T08:00:58.846Z,89.20
2024-02-28T08:03:26.126Z,89.30
2024-02-28T08:05:53.447Z,89.40
2024-02-28T08:08:20.804Z,89.40
2024-02-28T08:10:50.374Z,89.40
2024-02-28T08:13:17.708Z,89.40
2024-02-28T08:15:45.051Z,89.40
2024-02-28T08:18:12.792Z,89.50
2024-02-28T08:20:40.388Z,89.50
2024-02-28T08:23:07.689Z,89.60
2024-02-28T08:25:34.967Z,89.60
2024-02-28T08:28:02.354Z,89.50
2024-02-28T08:30:29.744Z,89.60
2024-02-28T08:32:57.037Z,89.50
2024-02-28T08:35:25.130Z,89.50
2024-02-28T08:37:52.420Z,89.40
2024-02-28T08:40:19.660Z,89.40
2024-02-28T08:42:47.729Z,89.30
2024-02-28T08:45:15.227Z,89.90
2024-02-28T08:47:43.143Z,89.30
2024-02-28T08:50:10.623Z,89.30
2024-02-28T08:52:38.123Z,89.30
2024-02-28T08:55:05.913Z,89.20
2024-02-28T08:57:33.330Z,89.20
2024-02-28T09:00:00.586Z,89.20
2024-02-28T09:02:27.910Z,89.10
2024-02-28T09:04:58.274Z,89.00
2024-02-28T09:07:25.581Z,89.00
2024-02-28T09:09:52.954Z,88.90
2024-02-28T09:12:20.525Z,88.90
2024-02-28T09:14:48.724Z,88.80
2024-02-28T09:17:15.908Z,88.80
2024-02-28T09:19:43.103Z,88.70
2024-02-28T09:22:10.339Z,88.70
2024-02-28T09:24:40.516Z,88.60
2024-02-28T09:27:08.223Z,88.50
2024-02-28T09:29:35.585Z,88.50
2024-02-28T09:32:02.878Z,88.40
2024-02-28T09:34:30.056Z,88.40
2024-02-28T09:36:57.349Z,88.40
2024-02-28T09:39:24.870Z,88.40
2024-02-28T09:41:52.599Z,88.40
2024-02-28T09:44:21.976Z,88.30
2024-02-28T09:46:53.047Z,88.20
2024-02-28T09:49:20.895Z,88.10
2024-02-28T09:51:53.398Z,87.90
2024-02-28T09:54:21.016Z,87.70
2024-02-28T09:56:49.996Z,87.60
2024-02-28T09:59:23.337Z,87.40
2024-02-28T10:02:00.587Z,87.20
2024-02-28T10:04:31.341Z,87.10
2024-02-28T10:06:58.925Z,87.00
2024-02-28T10:09:26.266Z,86.90
2024-02-28T10:11:53.700Z,86.70
2024-02-28T10:14:20.945Z,86.50
2024-02-28T10:16:48.437Z,86.50
2024-02-28T10:19:15.818Z,86.60
2024-02-28T10:21:43.759Z,86.60
2024-02-28T10:24:16.739Z,86.50
2024-02-28T10:26:56.551Z,86.40
2024-02-28T10:29:29.467Z,86.40
2024-02-28T10:31:56.672Z,86.40
2024-02-28T10:34:24.854Z,86.60
2024-02-28T10:36:52.991Z,86.50
2024-02-28T10:39:21.055Z,86.50
2024-02-28T10:41:50.059Z,86.70
2024-02-28T10:44:18.221Z,86.70
2024-02-28T10:46:50.191Z,86.70
2024-02-28T10:49:17.553Z,86.60
2024-02-28T10:51:49.646Z,86.60
2024-02-28T10:54:17.529Z,86.60
2024-02-28T10:56:45.379Z,86.60
2024-02-28T10:59:16.246Z,86.50
2024-02-28T11:01:47.353Z,86.30
2024-02-28T11:04:17.114Z,86.30
2024-02-28T11:06:52.570Z,86.10
2024-02-28T11:09:28.211Z,86.00
2024-02-28T11:11:57.218Z,85.90
2024-02-28T11:14:27.880Z,85.90
2024-02-28T11:17:06.829Z,85.70
2024-02-28T11:19:36.209Z,85.70
2024-02-28T11:22:07.422Z,85.80
2024-02-28T11:24:38.380Z,85.80
2024-02-28T11:27:07.843Z,86.00
2024-02-28T11:29:35.356Z,86.00
2024-02-28T11:32:02.743Z,86.00
2024-02-28T11:34:29.911Z,86.60
2024-02-28T11:36:57.796Z,85.80
2024-02-28T11:39:28.563Z,85.40
2024-02-28T11:41:56.910Z,85.30
2024-02-28T11:44:24.086Z,85.10
2024-02-28T11:46:53.658Z,85.20
2024-02-28T11:49:23.220Z,85.10
2024-02-28T11:51:50.472Z,85.30
2024-02-28T11:54:17.859Z,85.50
2024-02-28T11:56:45.247Z,85.40
2024-02-28T11:59:14.580Z,85.20
2024-02-28T12:01:51.444Z,84.90
2024-02-28T12:04:19.196Z,84.90
2024-02-28T12:06:47.337Z,84.80
2024-02-28T12:09:25.140Z,84.50
2024-02-28T12:11:55.785Z,84.10
2024-02-28T12:14:23.216Z,84.10
2024-02-28T12:16:50.528Z,84.10
2024-02-28T12:19:21.185Z,84.00
2024-02-28T12:21:48.488Z,83.80
2024-02-28T12:24:15.801Z,83.70
2024-02-28T12:26:43.052Z,83.30
2024-02-28T12:29:12.960Z,83.50
2024-02-28T12:31:42.978Z,83.00
2024-02-28T12:34:17.898Z,83.10
2024-02-28T12:36:47.488Z,82.70
2024-02-28T12:39:14.905Z,82.60
2024-02-28T12:41:42.503Z,82.50
2024-02-28T12:44:19.115Z,82.50
2024-02-28T12:47:36.220Z,82.80
2024-02-28T12:50:48.116Z,83.00
2024-02-28T12:53:31.772Z,83.00
2024-02-28T12:56:04.919Z,83.10
2024-02-28T12:58:35.716Z,83.00
2024-02-28T13:01:19.290Z,83.10
2024-02-28T13:04:01.248Z,83.20
2024-02-28T13:06:29.580Z,83.40
2024-02-28T13:08:56.908Z,83.50
2024-02-28T13:11:25.389Z,83.60
2024-02-28T13:13:57.336Z,83.60
2024-02-28T13:16:27.597Z,83.70
2024-02-28T13:18:56.769Z,83.80
2024-02-28T13:21:24.682Z,83.80
2024-02-28T13:23:52.331Z,83.90
2024-02-28T13:26:20.168Z,83.90
2024-02-28T13:28:50.243Z,83.90
2024-02-28T13:31:19.474Z,83.80
2024-02-28T13:33:46.757Z,83.90
2024-02-28T13:36:14.042Z,83.80
2024-02-28T13:38:41.210Z,83.60
2024-02-28T13:41:11.583Z,83.60
2024-02-28T13:43:39.085Z,83.50
2024-02-28T13:46:06.377Z,83.40
2024-02-28T13:48:34.821Z,83.50
2024-02-28T13:51:03.405Z,83.30
2024-02-28T13:53:33.139Z,83.30
2024-02-28T13:56:00.918Z,83.60
2024-02-28T13:58:36.298Z,83.70
2024-02-28T14:01:08.334Z,83.90
2024-02-28T14:03:35.825Z,83.60
2024-02-28T14:06:03.504Z,83.60
2024-02-28T14:08:35.399Z,83.80
2024-02-28T14:11:03.654Z,83.90
2024-02-28T14:13:30.840Z,83.90
2024-02-28T14:15:58.108Z,83.70
2024-02-28T14:18:25.413Z,83.70
2024-02-28T14:20:52.669Z,83.70
2024-02-28T14:23:19.866Z,83.70
2024-02-28T14:25:47.521Z,83.60
2024-02-28T14:28:14.873Z,83.30
2024-02-28T14:30:43.993Z,83.40
2024-02-28T14:33:13.620Z,83.20
2024-02-28T14:35:42.498Z,82.90
2024-02-28T14:38:09.656Z,82.80
2024-02-28T14:40:36.931Z,82.90
2024-02-28T14:43:04.333Z,82.90
2024-02-28T14:45:33.368Z,82.80
2024-02-28T14:48:01.136Z,82.80
2024-02-28T14:50:28.315Z,82.90
2024-02-28T14:52:55.853Z,82.90
2024-02-28T14:55:24.116Z,83.00
2024-02-28T14:57:52.370Z,83.10
2024-02-28T15:00:20.693Z,83.00
2024-02-28T15:02:47.918Z,82.90
2024-02-28T15:05:15.851Z,82.80
2024-02-28T15:07:43.014Z,82.90
2024-02-28T15:10:10.634Z,82.80
2024-02-28T15:12:38.673Z,82.70
2024-02-28T15:15:07.143Z,82.60
2024-02-28T15:17:35.168Z,82.40
2024-02-28T15:20:05.889Z,82.40
2024-02-28T15:22:34.815Z,82.50
2024-02-28T15:25:02.472Z,82.40
2024-02-28T15:27:30.518Z,82.50
2024-02-28T15:29:57.752Z,82.40
2024-02-28T15:32:25.086Z,82.50
2024-02-28T15:34:53.099Z,82.50
2024-02-28T15:37:20.368Z,82.50
2024-02-28T15:39:47.632Z,82.40
2024-02-28T15:42:15.027Z,82.40
2024-02-28T15:44:51.110Z,82.50
2024-02-28T15:47:18.237Z,82.50
2024-02-28T15:49:45.689Z,82.50
2024-02-28T15:52:12.862Z,82.60
2024-02-28T15:54:40.171Z,82.60
2024-02-28T15:57:07.716Z,82.70
2024-02-28T15:59:35.408Z,82.80
2024-02-28T16:02:04.964Z,82.80
2024-02-28T16:04:32.221Z,82.90
2024-02-28T16:07:01.349Z,83.00
2024-02-28T16:09:28.690Z,82.90
2024-02-28T16:11:55.950Z,83.00
2024-02-28T16:14:23.214Z,83.10
2024-02-28T16:16:50.558Z,83.00
2024-02-28T16:19:22.793Z,83.10
2024-02-28T16:21:55.481Z,83.10
2024-02-28T16:24:23.274Z,83.20
2024-02-28T16:26:50.763Z,83.20
2024-02-28T16:29:18.275Z,83.30
2024-02-28T16:31:50.453Z,83.40
2024-02-28T16:34:20.151Z,83.40
2024-02-28T16:36:48.925Z,83.50
2024-02-28T16:39:19.450Z,83.50
2024-02-28T16:41:46.950Z,83.60
2024-02-28T16:44:14.158Z,83.60
2024-02-28T16:46:41.505Z,83.60
2024-02-28T16:49:08.810Z,83.70
2024-02-28T16:51:37.601Z,83.70
2024-02-28T16:54:05.675Z,83.70
2024-02-28T16:56:33.061Z,83.70
2024-02-28T16:59:00.927Z,83.70
2024-02-28T17:01:28.356Z,83.70
2024-02-28T17:03:55.817Z,83.80
2024-02-28T17:06:23.210Z,83.80
2024-02-28T17:08:50.421Z,83.90
2024-02-28T17:11:18.593Z,83.90
2024-02-28T17:13:45.777Z,84.00
2024-02-28T17:16:15.411Z,84.10
2024-02-28T17:18:42.659Z,84.20
2024-02-28T17:21:09.913Z,84.20
2024-02-28T17:23:37.204Z,84.20
2024-02-28T17:26:04.929Z,84.40
2024-02-28T17:28:33.175Z,84.30
2024-02-28T17:31:00.633Z,84.40
2024-02-28T17:33:28.185Z,84.40
2024-02-28T17:35:56.532Z,85.00
2024-02-28T17:38:23.761Z,84.50
2024-02-28T17:40:53.000Z,84.50
2024-02-28T17:43:20.764Z,84.50
2024-02-28T17:45:48.310Z,84.50
2024-02-28T17:48:18.775Z,84.60
2024-02-28T17:50:46.028Z,84.60
2024-02-28T17:53:14.394Z,84.70
2024-02-28T17:55:41.754Z,84.70
2024-02-28T17:58:11.406Z,84.80
2024-02-28T18:00:38.759Z,85.40
2024-02-28T18:03:08.140Z,84.90
2024-02-28T18:05:35.783Z,85.00
2024-02-28T18:08:03.821Z,85.10
2024-02-28T18:10:33.435Z,85.10
2024-02-28T18:13:02.577Z,85.10
2024-02-28T18:15:30.189Z,85.10
2024-02-28T18:17:57.529Z,85.20
2024-02-28T18:20:24.767Z,85.20
2024-02-28T18:22:52.914Z,85.20
2024-02-28T18:25:20.488Z,85.20
2024-02-28T18:27:47.819Z,85.20
2024-02-28T18:30:15.245Z,85.20
2024-02-28T18:32:43.039Z,85.20
2024-02-28T18:35:10.585Z,85.30
2024-02-28T18:37:41.381Z,85.30
2024-02-28T18:40:13.811Z,85.30
2024-02-28T18:42:41.395Z,85.40
2024-02-28T18:45:09.001Z,85.40
2024-02-28T18:47:40.189Z,85.40
2024-02-28T18:50:18.402Z,85.40
2024-02-28T18:52:53.900Z,85.40
2024-02-28T18:55:26.303Z,85.50
2024-02-28T18:58:07.449Z,85.50
2024-02-28T19:00:38.979Z,85.50
2024-02-28T19:03:24.492Z,85.60
2024-02-28T19:06:15.690Z,85.60
2024-02-28T19:08:47.491Z,85.60
2024-02-28T19:11:25.744Z,85.60
2024-02-28T19:13:53.494Z,85.60
2024-02-28T19:16:23.168Z,85.70
2024-02-28T19:18:53.257Z,85.60
2024-02-28T19:21:20.592Z,85.60
2024-02-28T19:23:47.809Z,85.60
2024-02-28T19:26:17.436Z,85.60
2024-02-28T19:28:45.467Z,85.60
2024-02-28T19:31:13.618Z,85.70
2024-02-28T19:33:41.279Z,85.70
2024-02-28T19:36:10.284Z,85.80
2024-02-28T19:38:37.640Z,85.80
2024-02-28T19:41:05.493Z,85.80
2024-02-28T19:43:33.444Z,85.80
2024-02-28T19:46:01.916Z,85.90
2024-02-28T19:48:30.029Z,85.90
2024-02-28T19:50:57.422Z,85.90
2024-02-28T19:53:25.229Z,85.90
2024-02-28T19:55:52.590Z,85.90
2024-02-28T19:58:20.808Z,86.00
2024-02-28T20:00:48.076Z,86.00
2024-02-28T20:03:15.430Z,86.00
2024-02-28T20:05:42.933Z,86.00
2024-02-28T20:08:11.895Z,86.10
2024-02-28T20:10:39.652Z,86.10
2024-02-28T20:13:07.587Z,86.10
2024-02-28T20:15:35.293Z,86.10
2024-02-28T20:18:06.066Z,86.20
2024-02-28T20:20:33.440Z,86.20
2024-02-28T20:23:00.837Z,86.20
2024-02-28T20:25:28.341Z,86.30
2024-02-28T20:27:56.984Z,86.40
2024-02-28T20:30:24.360Z,86.40
2024-02-28T20:32:56.516Z,86.40
2024-02-28T20:35:31.516Z,86.50
2024-02-28T20:38:00.105Z,86.60
2024-02-28T20:40:31.303Z,86.60
2024-02-28T20:43:00.547Z,86.60
2024-02-28T20:45:29.832Z,86.60
2024-02-28T20:48:00.584Z,86.70
2024-02-28T20:50:27.922Z,86.80
2024-02-28T20:52:56.569Z,86.80
2024-02-28T20:55:29.229Z,86.90
2024-02-28T20:57:56.504Z,86.80
2024-02-28T21:00:25.422Z,86.80
2024-02-28T21:02:52.902Z,86.90
2024-02-28T21:05:21.196Z,86.90
2024-02-28T21:07:53.067Z,86.90
2024-02-28T21:10:21.735Z,87.00
2024-02-28T21:12:49.176Z,86.90
2024-02-28T21:15:16.903Z,87.00
2024-02-28T21:17:44.467Z,87.00
2024-02-28T21:20:11.973Z,87.10
2024-02-28T21:22:41.763Z,87.20
2024-02-28T21:25:09.649Z,87.10
2024-02-28T21:27:37.230Z,87.30
2024-02-28T21:30:06.528Z,87.30
2024-02-28T21:32:34.022Z,87.40
2024-02-28T21:35:01.361Z,87.40
2024-02-28T21:37:28.484Z,87.50
2024-02-28T21:39:55.684Z,87.40
2024-02-28T21:42:22.935Z,87.50
2024-02-28T21:44:50.231Z,87.50
2024-02-28T21:47:17.370Z,87.60
2024-02-28T21:49:44.719Z,87.50
2024-02-28T21:52:12.193Z,87.50
2024-02-28T21:54:43.264Z,87.50
2024-02-28T21:57:11.842Z,87.60
2024-02-28T21:59:39.288Z,87.50
2024-02-28T22:02:07.313Z,87.50
2024-02-28T22:04:35.194Z,87.50
2024-02-28T22:07:03.929Z,87.50
2024-02-28T22:09:31.180Z,87.50
2024-02-28T22:11:58.407Z,87.40
2024-02-28T22:14:25.621Z,87.50
2024-02-28T22:16:53.088Z,87.40
2024-02-28T22:19:20.353Z,87.50
2024-02-28T22:21:47.718Z,87.50
2024-02-28T22:24:14.930Z,87.40
2024-02-28T22:26:42.280Z,87.40
2024-02-28T22:29:10.261Z,87.30
2024-02-28T22:31:37.453Z,87.40
2024-02-28T22:34:04.743Z,87.30
2024-02-28T22:36:32.309Z,87.30
2024-02-28T22:38:59.567Z,87.20
2024-02-28T22:41:27.757Z,87.20
2024-02-28T22:43:54.934Z,87.20
2024-02-28T22:46:22.863Z,87.20
2024-02-28T22:48:50.136Z,87.10
2024-02-28T22:51:18.191Z,87.10
2024-02-28T22:53:47.877Z,87.10
2024-02-28T22:56:15.353Z,87.00
2024-02-28T22:58:42.476Z,87.00
2024-02-28T23:01:09.748Z,86.90
2024-02-28T23:03:37.075Z,86.90
2024-02-28T23:06:04.716Z,86.90
2024-02-28T23:08:31.869Z,86.90
2024-02-28T23:10:59.121Z,86.80
2024-02-28T23:13:26.457Z,86.70
2024-02-28T23:15:53.881Z,86.50
2024-02-28T23:18:21.065Z,86.50
2024-02-28T23:20:48.253Z,86.40
2024-02-28T23:23:15.447Z,86.30
2024-02-28T23:25:42.949Z,86.30
2024-02-28T23:28:10.398Z,86.30
2024-02-28T23:30:37.759Z,86.20
2024-02-28T23:33:08.127Z,86.20
2024-02-28T23:35:35.562Z,86.80
2024-02-28T23:38:06.744Z,86.30
2024-02-28T23:40:34.597Z,86.30
2024-02-28T23:43:01.945Z,86.40
2024-02-28T23:45:29.478Z,86.50
2024-02-28T23:47:57.247Z,86.50
2024-02-28T23:50:24.488Z,86.50
2024-02-28T23:52:51.643Z,86.60
2024-02-28T23:55:19.729Z,86.60
2024-02-28T23:57:48.025Z,86.60
